createdAt,value
2022-12-01T00:01:23.996Z,28.40
2022-12-01T00:03:51.041Z,20.30
2022-12-01T00:06:21.654Z,18.50
2022-12-01T00:09:10.462Z,18.40
2022-12-01T00:11:39.099Z,18.70
2022-12-01T00:14:06.683Z,23.50
2022-12-01T00:16:34.419Z,26.30
2022-12-01T00:19:01.394Z,17.40
2022-12-01T00:21:28.616Z,22.30
2022-12-01T00:23:58.252Z,19.70
2022-12-01T00:26:27.505Z,14.30
2022-12-01T00:28:57.931Z,17.40
2022-12-01T00:31:25.425Z,20.50
2022-12-01T00:33:52.741Z,19.40
2022-12-01T00:36:19.894Z,20.40
2022-12-01T00:38:47.253Z,18.10
2022-12-01T00:41:14.268Z,21.30
2022-12-01T00:43:41.238Z,26.60
2022-12-01T00:46:08.328Z,18.30
2022-12-01T00:48:35.371Z,18.10
2022-12-01T00:51:02.392Z,15.20
2022-12-01T00:53:29.480Z,11.80
2022-12-01T00:55:56.717Z,17.70
2022-12-01T00:58:24.990Z,18.20
2022-12-01T01:01:02.265Z,10.50
2022-12-01T01:03:30.699Z,14.00
2022-12-01T01:06:08.763Z,20.40
2022-12-01T01:08:36.179Z,16.40
2022-12-01T01:11:04.246Z,15.30
2022-12-01T01:13:31.410Z,19.90
2022-12-01T01:16:19.381Z,18.00
2022-12-01T01:18:47.468Z,13.60
2022-12-01T01:21:18.174Z,14.10
2022-12-01T01:23:45.221Z,11.80
2022-12-01T01:26:20.366Z,12.30
2022-12-01T01:28:48.764Z,15.80
2022-12-01T01:31:20.652Z,17.40
2022-12-01T01:33:48.218Z,16.10
2022-12-01T01:36:16.674Z,17.00
2022-12-01T01:38:43.603Z,12.90
2022-12-01T01:41:11.460Z,17.40
2022-12-01T01:43:41.058Z,22.60
2022-12-01T01:46:11.960Z,18.30
2022-12-01T01:48:42.617Z,19.00
2022-12-01T01:51:13.085Z,22.30
2022-12-01T01:53:42.089Z,21.10
2022-12-01T01:56:09.432Z,19.00
2022-12-01T01:58:38.335Z,19.70
2022-12-01T02:01:06.759Z,16.40
2022-12-01T02:03:35.885Z,18.80
2022-12-01T02:06:05.099Z,17.00
2022-12-01T02:08:36.148Z,20.90
2022-12-01T02:11:48.698Z,18.30
2022-12-01T02:14:40.984Z,19.70
2022-12-01T02:17:40.217Z,22.30
2022-12-01T02:20:43.129Z,17.10
2022-12-01T02:23:48.116Z,13.10
2022-12-01T02:27:05.113Z,16.70
2022-12-01T02:30:06.160Z,31.10
2022-12-01T02:32:38.614Z,20.80
2022-12-01T02:35:36.175Z,25.90
2022-12-01T02:38:17.700Z,16.30
2022-12-01T02:41:04.882Z,16.30
2022-12-01T02:44:02.000Z,14.50
2022-12-01T02:46:37.162Z,15.50
2022-12-01T02:49:29.709Z,16.50
2022-12-01T02:51:58.691Z,17.30
2022-12-01T02:54:29.591Z,12.80
2022-12-01T02:56:56.562Z,17.20
2022-12-01T02:59:23.428Z,13.30
2022-12-01T03:02:42.490Z,21.00
2022-12-01T03:05:24.086Z,20.40
2022-12-01T03:08:22.776Z,16.50
2022-12-01T03:10:56.774Z,22.60
2022-12-01T03:13:32.564Z,18.20
2022-12-01T03:16:15.659Z,15.50
2022-12-01T03:19:06.087Z,14.80
2022-12-01T03:21:41.072Z,14.10
2022-12-01T03:24:18.695Z,13.40
2022-12-01T03:26:56.105Z,12.70
2022-12-01T03:29:39.952Z,18.50
2022-12-01T03:32:22.458Z,17.60
2022-12-01T03:35:05.389Z,22.70
2022-12-01T03:37:41.631Z,20.10
2022-12-01T03:40:12.846Z,15.90
2022-12-01T03:42:46.854Z,18.70
2022-12-01T03:45:42.500Z,16.20
2022-12-01T03:48:09.478Z,15.40
2022-12-01T03:50:58.567Z,19.00
2022-12-01T03:53:33.158Z,20.90
2022-12-01T03:56:06.280Z,24.90
2022-12-01T03:58:43.291Z,18.50
2022-12-01T04:01:10.441Z,17.20
2022-12-01T04:03:37.361Z,25.60
2022-12-01T04:06:04.786Z,14.40
2022-12-01T04:08:33.811Z,20.10
2022-12-01T04:11:00.718Z,20.30
2022-12-01T04:13:27.604Z,23.50
2022-12-01T04:15:56.051Z,22.40
2022-12-01T04:18:22.975Z,21.50
2022-12-01T04:20:50.737Z,21.10
2022-12-01T04:23:36.111Z,17.60
2022-12-01T04:26:05.727Z,25.00
2022-12-01T04:28:33.193Z,14.40
2022-12-01T04:31:00.076Z,21.30
2022-12-01T04:33:27.016Z,15.50
2022-12-01T04:36:00.546Z,20.30
2022-12-01T04:38:30.888Z,18.50
2022-12-01T04:40:58.450Z,14.70
2022-12-01T04:43:25.345Z,13.20
2022-12-01T04:45:52.237Z,13.60
2022-12-01T04:48:19.123Z,11.10
2022-12-01T04:50:49.474Z,14.30
2022-12-01T04:53:16.441Z,13.30
2022-12-01T04:55:43.291Z,17.00
2022-12-01T04:58:10.160Z,14.80
2022-12-01T05:00:37.955Z,15.20
2022-12-01T05:03:06.377Z,16.00
2022-12-01T05:05:35.494Z,25.90
2022-12-01T05:08:02.372Z,15.80
2022-12-01T05:10:29.513Z,19.00
2022-12-01T05:12:58.228Z,13.20
2022-12-01T05:15:25.192Z,16.50
2022-12-01T05:17:52.080Z,20.60
2022-12-01T05:20:41.348Z,20.10
2022-12-01T05:23:12.269Z,22.60
2022-12-01T05:25:43.365Z,18.60
2022-12-01T05:28:10.248Z,13.10
2022-12-01T05:30:37.145Z,13.40
2022-12-01T05:33:04.082Z,15.20
2022-12-01T05:35:33.975Z,17.20
2022-12-01T05:38:06.083Z,16.60
2022-12-01T05:40:35.504Z,12.80
2022-12-01T05:43:02.763Z,18.30
2022-12-01T05:45:29.731Z,19.40
2022-12-01T05:47:58.394Z,15.50
2022-12-01T05:50:27.438Z,16.30
2022-12-01T05:52:55.666Z,16.10
2022-12-01T05:55:22.730Z,15.80
2022-12-01T05:57:49.598Z,18.70
2022-12-01T06:00:17.173Z,27.10
2022-12-01T06:02:44.106Z,24.60
2022-12-01T06:05:10.961Z,17.00
2022-12-01T06:07:40.427Z,14.10
2022-12-01T06:10:09.957Z,14.00
2022-12-01T06:12:37.868Z,13.50
2022-12-01T06:15:06.822Z,12.00
2022-12-01T06:17:39.757Z,18.30
2022-12-01T06:20:08.673Z,18.10
2022-12-01T06:22:35.561Z,14.70
2022-12-01T06:25:02.448Z,17.10
2022-12-01T06:27:29.356Z,12.60
2022-12-01T06:29:56.230Z,18.30
2022-12-01T06:32:23.143Z,29.50
2022-12-01T06:34:50.016Z,13.60
2022-12-01T06:37:17.086Z,17.00
2022-12-01T06:39:43.984Z,20.50
2022-12-01T06:42:10.923Z,18.20
2022-12-01T06:44:38.147Z,14.40
2022-12-01T06:47:05.124Z,19.70
2022-12-01T06:49:32.045Z,14.70
2022-12-01T06:52:00.960Z,14.30
2022-12-01T06:54:28.073Z,19.20
2022-12-01T06:56:54.991Z,15.80
2022-12-01T06:59:22.510Z,16.60
2022-12-01T07:01:49.758Z,16.20
2022-12-01T07:04:16.629Z,14.70
2022-12-01T07:06:43.478Z,13.90
2022-12-01T07:09:10.512Z,13.40
2022-12-01T07:11:38.697Z,12.10
2022-12-01T07:14:05.631Z,14.40
2022-12-01T07:16:32.601Z,15.90
2022-12-01T07:19:00.082Z,16.10
2022-12-01T07:21:26.988Z,13.60
2022-12-01T07:23:54.937Z,23.60
2022-12-01T07:26:22.206Z,19.10
2022-12-01T07:28:49.070Z,23.10
2022-12-01T07:31:20.040Z,30.70
2022-12-01T07:33:47.043Z,33.20
2022-12-01T07:36:14.877Z,26.50
2022-12-01T07:38:42.680Z,22.00
2022-12-01T07:41:13.522Z,22.40
2022-12-01T07:43:40.918Z,32.10
2022-12-01T07:46:24.173Z,17.10
2022-12-01T07:48:52.905Z,25.80
2022-12-01T07:51:21.340Z,11.80
2022-12-01T07:53:50.422Z,20.80
2022-12-01T07:56:19.334Z,10.40
2022-12-01T07:58:46.393Z,11.70
2022-12-01T08:01:20.483Z,13.40
2022-12-01T08:03:56.688Z,15.20
2022-12-01T08:06:25.401Z,18.30
2022-12-01T08:08:53.170Z,33.30
2022-12-01T08:11:31.543Z,23.60
2022-12-01T08:13:58.568Z,14.90
2022-12-01T08:16:26.093Z,17.10
2022-12-01T08:18:53.505Z,16.30
2022-12-01T08:21:23.721Z,18.80
2022-12-01T08:23:57.735Z,15.70
2022-12-01T08:26:26.493Z,18.50
2022-12-01T08:28:53.577Z,22.80
2022-12-01T08:31:30.015Z,20.60
2022-12-01T08:33:57.984Z,23.30
2022-12-01T08:36:25.938Z,26.20
2022-12-01T08:38:55.197Z,15.60
2022-12-01T08:41:24.414Z,25.00
2022-12-01T08:44:00.363Z,16.40
2022-12-01T08:46:36.036Z,16.60
2022-12-01T08:49:05.352Z,18.60
2022-12-01T08:51:32.829Z,23.70
2022-12-01T08:54:00.481Z,11.80
2022-12-01T08:56:35.394Z,16.00
2022-12-01T08:59:03.260Z,15.70
2022-12-01T09:01:30.283Z,15.90
2022-12-01T09:04:10.959Z,19.50
2022-12-01T09:06:44.724Z,22.80
2022-12-01T09:09:16.493Z,17.50
2022-12-01T09:11:44.486Z,12.80
2022-12-01T09:14:17.111Z,15.00
2022-12-01T09:16:46.735Z,26.00
2022-12-01T09:19:17.905Z,16.10
2022-12-01T09:21:49.148Z,15.00
2022-12-01T09:24:16.626Z,17.60
2022-12-01T09:26:43.719Z,12.90
2022-12-01T09:29:13.897Z,18.70
2022-12-01T09:31:42.175Z,18.90
2022-12-01T09:34:15.157Z,19.10
2022-12-01T09:36:42.541Z,13.50
2022-12-01T09:39:14.812Z,12.30
2022-12-01T09:41:57.078Z,13.70
2022-12-01T09:44:44.716Z,13.00
2022-12-01T09:47:19.402Z,15.10
2022-12-01T09:50:01.503Z,15.70
2022-12-01T09:52:38.966Z,13.90
2022-12-01T09:55:16.444Z,14.50
2022-12-01T09:57:50.418Z,13.00
2022-12-01T10:00:20.910Z,10.40
2022-12-01T10:02:56.600Z,15.90
2022-12-01T10:05:29.750Z,12.80
2022-12-01T10:08:03.001Z,12.70
2022-12-01T10:10:46.615Z,10.50
2022-12-01T10:13:24.236Z,12.50
2022-12-01T10:16:09.248Z,14.30
2022-12-01T10:18:44.917Z,12.00
2022-12-01T10:21:39.284Z,14.80
2022-12-01T10:24:28.209Z,20.10
2022-12-01T10:27:34.189Z,19.40
2022-12-01T10:30:05.378Z,18.50
2022-12-01T10:32:55.184Z,15.70
2022-12-01T10:35:26.998Z,13.00
2022-12-01T10:38:01.269Z,14.20
2022-12-01T10:40:29.048Z,12.60
2022-12-01T10:42:55.991Z,14.20
2022-12-01T10:45:29.788Z,16.30
2022-12-01T10:48:18.259Z,13.80
2022-12-01T10:50:55.807Z,13.50
2022-12-01T10:53:22.590Z,18.00
2022-12-01T10:55:59.769Z,20.50
2022-12-01T10:58:26.668Z,16.10
2022-12-01T11:01:03.940Z,17.00
2022-12-01T11:03:35.482Z,13.30
2022-12-01T11:06:05.381Z,11.20
2022-12-01T11:08:41.676Z,13.70
2022-12-01T11:11:44.078Z,13.90
2022-12-01T11:14:24.040Z,17.30
2022-12-01T11:16:54.173Z,16.90
2022-12-01T11:19:35.003Z,11.60
2022-12-01T11:22:20.402Z,11.90
2022-12-01T11:24:59.730Z,12.40
2022-12-01T11:27:32.364Z,14.60
2022-12-01T11:30:08.099Z,13.80
2022-12-01T11:32:39.023Z,14.50
2022-12-01T11:35:19.087Z,14.10
2022-12-01T11:38:27.261Z,12.60
2022-12-01T11:40:58.713Z,12.90
2022-12-01T11:43:33.464Z,17.90
2022-12-01T11:46:05.830Z,15.00
2022-12-01T11:48:36.323Z,13.50
2022-12-01T11:51:09.188Z,13.90
2022-12-01T11:53:40.258Z,12.30
2022-12-01T11:56:17.150Z,12.30
2022-12-01T11:58:46.563Z,15.70
2022-12-01T12:01:24.397Z,19.60
2022-12-01T12:04:20.443Z,15.20
2022-12-01T12:07:10.522Z,12.10
2022-12-01T12:10:11.822Z,10.90
2022-12-01T12:13:13.432Z,12.70
2022-12-01T12:16:02.977Z,16.80
2022-12-01T12:18:56.605Z,12.10
2022-12-01T12:21:38.634Z,10.00
2022-12-01T12:24:41.316Z,17.60
2022-12-01T12:27:47.934Z,11.80
2022-12-01T12:30:21.910Z,12.70
2022-12-01T12:33:33.537Z,10.80
2022-12-01T12:37:02.003Z,11.70
2022-12-01T12:39:48.787Z,12.70
2022-12-01T12:43:09.960Z,10.00
2022-12-01T12:46:01.401Z,12.10
2022-12-01T12:51:58.454Z,14.20
2022-12-01T12:55:13.130Z,12.30
2022-12-01T12:57:53.225Z,18.40
2022-12-01T13:00:28.982Z,16.80
2022-12-01T13:03:29.173Z,19.60
2022-12-01T13:06:26.568Z,10.10
2022-12-01T13:09:12.147Z,16.80
2022-12-01T13:11:53.377Z,11.60
2022-12-01T13:14:47.478Z,11.00
2022-12-01T13:17:35.571Z,13.20
2022-12-01T13:20:03.601Z,14.00
2022-12-01T13:22:34.393Z,15.10
2022-12-01T13:25:02.795Z,10.90
2022-12-01T13:27:35.345Z,15.20
2022-12-01T13:30:02.825Z,15.20
2022-12-01T13:32:40.672Z,10.60
2022-12-01T13:35:31.000Z,9.50
2022-12-01T13:38:34.042Z,14.00
2022-12-01T13:41:24.592Z,15.20
2022-12-01T13:44:02.385Z,16.80
2022-12-01T13:46:50.916Z,20.50
2022-12-01T13:49:40.548Z,22.40
2022-12-01T13:52:22.536Z,33.30
2022-12-01T13:55:10.840Z,18.70
2022-12-01T13:57:49.678Z,23.10
2022-12-01T14:00:46.176Z,15.00
2022-12-01T14:03:13.145Z,18.70
2022-12-01T14:05:40.059Z,24.70
2022-12-01T14:08:22.619Z,15.90
2022-12-01T14:11:13.179Z,17.10
2022-12-01T14:14:00.265Z,18.50
2022-12-01T14:16:53.638Z,12.90
2022-12-01T14:19:37.385Z,11.90
2022-12-01T14:22:33.881Z,12.50
2022-12-01T14:25:02.282Z,14.60
2022-12-01T14:27:41.826Z,10.90
2022-12-01T14:30:40.034Z,11.00
2022-12-01T14:33:51.199Z,17.10
2022-12-01T14:36:24.250Z,18.50
2022-12-01T14:38:57.231Z,21.70
2022-12-01T14:41:29.911Z,21.10
2022-12-01T14:44:26.914Z,16.90
2022-12-01T14:47:06.318Z,28.70
2022-12-01T14:49:40.398Z,15.50
2022-12-01T14:52:22.539Z,10.10
2022-12-01T14:54:50.185Z,14.90
2022-12-01T14:57:23.818Z,15.70
2022-12-01T15:00:24.750Z,15.20
2022-12-01T15:02:56.858Z,9.30
2022-12-01T15:05:30.681Z,15.20
2022-12-01T15:08:33.295Z,11.90
2022-12-01T15:10:54.906Z,13.10
2022-12-01T15:13:30.364Z,15.80
2022-12-01T15:16:12.973Z,14.90
2022-12-01T15:18:40.291Z,17.10
2022-12-01T15:21:29.143Z,14.40
2022-12-01T15:23:57.974Z,13.00
2022-12-01T15:26:29.814Z,14.60
2022-12-01T15:29:16.581Z,21.50
2022-12-01T15:31:48.777Z,26.20
2022-12-01T15:34:47.567Z,27.10
2022-12-01T15:37:21.524Z,26.00
2022-12-01T15:40:11.968Z,34.70
2022-12-01T15:42:44.247Z,34.00
2022-12-01T15:45:23.345Z,41.30
2022-12-01T15:47:52.615Z,26.70
2022-12-01T15:50:44.474Z,31.30
2022-12-01T15:53:26.011Z,21.90
2022-12-01T15:55:59.122Z,30.40
2022-12-01T15:58:30.450Z,32.00
2022-12-01T16:01:01.859Z,30.90
2022-12-01T16:03:29.504Z,31.80
2022-12-01T16:05:58.231Z,28.40
2022-12-01T16:08:28.062Z,18.70
2022-12-01T16:11:18.690Z,20.00
2022-12-01T16:13:57.242Z,16.70
2022-12-01T16:16:36.227Z,15.80
2022-12-01T16:19:33.802Z,26.70
2022-12-01T16:22:17.673Z,19.60
2022-12-01T16:24:55.025Z,15.30
2022-12-01T16:27:28.257Z,16.20
2022-12-01T16:30:02.726Z,21.00
2022-12-01T16:32:38.367Z,21.50
2022-12-01T16:35:27.777Z,31.30
2022-12-01T16:37:55.428Z,28.90
2022-12-01T16:40:23.707Z,24.50
2022-12-01T16:42:50.671Z,11.60
2022-12-01T16:45:19.499Z,18.70
2022-12-01T16:47:49.883Z,12.90
2022-12-01T16:50:19.658Z,15.10
2022-12-01T16:52:47.010Z,19.70
2022-12-01T16:55:31.671Z,14.00
2022-12-01T16:57:58.698Z,19.00
2022-12-01T17:00:25.869Z,15.80
2022-12-01T17:02:52.939Z,17.30
2022-12-01T17:05:20.026Z,31.10
2022-12-01T17:07:47.001Z,30.80
2022-12-01T17:10:14.775Z,31.80
2022-12-01T17:12:41.948Z,26.10
2022-12-01T17:15:10.967Z,22.20
2022-12-01T17:17:38.266Z,25.00
2022-12-01T17:20:08.231Z,30.90
2022-12-01T17:22:35.482Z,38.70
2022-12-01T17:25:02.793Z,33.70
2022-12-01T17:27:31.555Z,19.90
2022-12-01T17:30:01.908Z,24.30
2022-12-01T17:32:28.942Z,17.80
2022-12-01T17:34:55.831Z,19.70
2022-12-01T17:37:22.727Z,19.70
2022-12-01T17:39:50.488Z,22.90
2022-12-01T17:42:17.598Z,25.00
2022-12-01T17:44:44.951Z,23.90
2022-12-01T17:47:12.446Z,23.50
2022-12-01T17:49:39.385Z,16.20
2022-12-01T17:52:07.071Z,11.80
2022-12-01T17:54:34.301Z,22.60
2022-12-01T17:57:01.164Z,26.50
2022-12-01T17:59:28.230Z,32.40
2022-12-01T18:01:55.225Z,17.10
2022-12-01T18:04:22.136Z,20.80
2022-12-01T18:06:53.761Z,13.60
2022-12-01T18:09:21.790Z,24.20
2022-12-01T18:11:48.953Z,20.80
2022-12-01T18:14:18.645Z,22.00
2022-12-01T18:16:45.623Z,32.70
2022-12-01T18:19:13.304Z,14.40
2022-12-01T18:21:40.501Z,15.20
2022-12-01T18:24:11.475Z,19.30
2022-12-01T18:26:40.742Z,24.90
2022-12-01T18:29:16.355Z,41.10
2022-12-01T18:31:43.509Z,37.00
2022-12-01T18:34:11.851Z,33.00
2022-12-01T18:36:40.896Z,29.00
2022-12-01T18:39:09.451Z,23.80
2022-12-01T18:41:37.165Z,31.60
2022-12-01T18:44:05.269Z,25.90
2022-12-01T18:46:32.998Z,22.70
2022-12-01T18:49:04.655Z,22.90
2022-12-01T18:51:35.006Z,26.20
2022-12-01T18:54:04.786Z,34.10
2022-12-01T18:56:32.491Z,18.50
2022-12-01T18:59:06.434Z,22.10
2022-12-01T19:01:40.743Z,18.80
2022-12-01T19:04:09.760Z,18.40
2022-12-01T19:06:38.991Z,22.00
2022-12-01T19:09:09.999Z,14.80
2022-12-01T19:11:38.645Z,18.50
2022-12-01T19:14:05.532Z,14.70
2022-12-01T19:16:33.400Z,16.20
2022-12-01T19:19:01.300Z,22.20
2022-12-01T19:21:28.294Z,20.10
2022-12-01T19:23:55.235Z,20.80
2022-12-01T19:26:23.244Z,16.60
2022-12-01T19:28:50.394Z,13.20
2022-12-01T19:31:23.003Z,29.80
2022-12-01T19:33:50.645Z,22.20
2022-12-01T19:36:24.079Z,21.40
2022-12-01T19:38:51.918Z,16.40
2022-12-01T19:41:20.800Z,20.10
2022-12-01T19:43:48.319Z,36.10
2022-12-01T19:46:19.848Z,37.30
2022-12-01T19:48:48.498Z,35.30
2022-12-01T19:51:22.558Z,24.40
2022-12-01T19:53:50.033Z,17.40
2022-12-01T19:56:16.961Z,17.10
2022-12-01T19:58:43.900Z,18.50
2022-12-01T20:01:14.614Z,16.00
2022-12-01T20:03:44.534Z,18.50
2022-12-01T20:06:16.143Z,14.40
2022-12-01T20:08:43.203Z,13.90
2022-12-01T20:11:11.230Z,15.30
2022-12-01T20:13:41.241Z,21.00
2022-12-01T20:16:10.002Z,18.50
2022-12-01T20:18:37.586Z,17.20
2022-12-01T20:21:16.814Z,14.20
2022-12-01T20:23:46.616Z,17.20
2022-12-01T20:26:15.438Z,23.70
2022-12-01T20:28:43.958Z,35.70
2022-12-01T20:31:22.112Z,28.80
2022-12-01T20:33:51.831Z,20.90
2022-12-01T20:36:19.399Z,22.40
2022-12-01T20:38:46.883Z,23.30
2022-12-01T20:41:14.348Z,46.90
2022-12-01T20:43:41.314Z,28.20
2022-12-01T20:46:08.911Z,24.80
2022-12-01T20:48:35.931Z,27.70
2022-12-01T20:51:05.510Z,23.10
2022-12-01T20:53:32.881Z,14.40
2022-12-01T20:56:09.616Z,19.30
2022-12-01T20:58:38.158Z,8.00
2022-12-01T21:01:15.721Z,17.30
2022-12-01T21:03:44.846Z,17.90
2022-12-01T21:06:14.447Z,19.00
2022-12-01T21:08:44.503Z,12.90
2022-12-01T21:11:44.519Z,14.40
2022-12-01T21:14:22.561Z,11.80
2022-12-01T21:16:53.043Z,13.70
2022-12-01T21:19:30.235Z,14.80
2022-12-01T21:21:58.512Z,11.80
2022-12-01T21:24:33.544Z,13.40
2022-12-01T21:27:14.104Z,20.20
2022-12-01T21:29:49.317Z,15.10
2022-12-01T21:32:29.530Z,31.50
2022-12-01T21:35:13.766Z,28.20
2022-12-01T21:37:40.673Z,43.80
2022-12-01T21:40:17.646Z,26.20
2022-12-01T21:42:44.843Z,27.80
2022-12-01T21:45:24.998Z,21.90
2022-12-01T21:47:52.773Z,17.00
2022-12-01T21:50:25.211Z,18.20
2022-12-01T21:52:52.135Z,25.60
2022-12-01T21:55:18.955Z,34.80
2022-12-01T21:57:49.216Z,24.20
2022-12-01T22:00:33.761Z,30.70
2022-12-01T22:03:09.759Z,36.00
2022-12-01T22:06:21.145Z,17.20
2022-12-01T22:08:43.733Z,29.50
2022-12-01T22:11:24.453Z,31.80
2022-12-01T22:14:00.559Z,47.20
2022-12-01T22:16:39.754Z,22.20
2022-12-01T22:19:15.691Z,46.50
2022-12-01T22:21:51.337Z,48.20
2022-12-01T22:24:26.911Z,39.90
2022-12-01T22:27:07.181Z,25.30
2022-12-01T22:29:43.961Z,38.70
2022-12-01T22:32:13.542Z,35.00
2022-12-01T22:34:46.133Z,27.80
2022-12-01T22:37:24.971Z,20.70
2022-12-01T22:39:55.807Z,27.30
2022-12-01T22:42:32.684Z,36.40
2022-12-01T22:45:23.649Z,29.60
2022-12-01T22:47:51.753Z,29.10
2022-12-01T22:50:31.473Z,38.60
2022-12-01T22:53:18.061Z,27.30
2022-12-01T22:55:45.115Z,25.30
2022-12-01T22:58:31.750Z,23.90
2022-12-01T23:01:10.351Z,21.00
2022-12-01T23:03:37.257Z,19.80
2022-12-01T23:06:45.543Z,20.00
2022-12-01T23:09:14.563Z,20.80
2022-12-01T23:11:50.601Z,19.40
2022-12-01T23:14:23.338Z,16.30
2022-12-01T23:16:53.640Z,14.60
2022-12-01T23:19:20.505Z,16.40
2022-12-01T23:21:47.439Z,20.80
2022-12-01T23:24:17.932Z,18.70
2022-12-01T23:26:46.445Z,16.50
2022-12-01T23:29:13.350Z,15.30
2022-12-01T23:31:41.162Z,21.20
2022-12-01T23:34:16.080Z,14.10
2022-12-01T23:36:43.630Z,11.60
2022-12-01T23:39:13.932Z,14.40
2022-12-01T23:41:44.566Z,14.60
2022-12-01T23:44:50.301Z,16.10
2022-12-01T23:47:25.565Z,19.20
2022-12-01T23:50:02.984Z,18.30
2022-12-01T23:52:36.487Z,25.70
2022-12-01T23:55:23.034Z,19.50
2022-12-01T23:57:50.459Z,18.80
